Time;durP1;ratioP1;P1;durP2;ratioP2;P2;SDS_P1;SDS_P2;PMS_P1;PMS_P2;Temp;Humidity;BMP_temperature;BMP_pressure;BME280_temperature;BME280_humidity;BME280_pressure;Samples;Min_cycle;Max_cycle;Signal;HPM_P1;HPM_P2
2022/07/14 00:00:55;;;;;;;6.45;1.92;;;10.40;99.90;;;;;;4955416;29;20070;-74
2022/07/14 00:03:23;;;;;;;9.20;1.42;;;10.50;99.90;;;;;;4955253;29;20035;-72
2022/07/14 00:05:50;;;;;;;7.25;2.40;;;10.30;99.90;;;;;;4937673;29;20047;-74
2022/07/14 00:08:18;;;;;;;11.13;2.40;;;10.30;99.90;;;;;;4937794;29;20035;-74
2022/07/14 00:10:46;;;;;;;9.43;2.17;;;10.30;99.90;;;;;;4954926;29;20077;-74
2022/07/14 00:13:13;;;;;;;9.63;1.92;;;10.40;99.90;;;;;;4954916;29;20090;-74
2022/07/14 00:15:41;;;;;;;9.43;2.45;;;10.40;99.90;;;;;;4937547;29;20090;-74
2022/07/14 00:18:08;;;;;;;9.00;2.03;;;10.40;99.90;;;;;;4937600;29;20037;-75
2022/07/14 00:20:36;;;;;;;8.30;2.20;;;10.50;99.90;;;;;;4954836;29;20058;-73
2022/07/14 00:23:03;;;;;;;10.18;1.75;;;10.40;99.90;;;;;;4954626;28;20031;-74
2022/07/14 00:25:30;;;;;;;10.13;2.28;;;10.50;99.90;;;;;;4954772;29;20369;-73
2022/07/14 00:27:58;;;;;;;7.70;2.03;;;10.50;99.90;;;;;;4954736;29;20542;-72
2022/07/14 00:30:25;;;;;;;9.93;2.30;;;10.60;99.90;;;;;;4954738;29;20106;-72
2022/07/14 00:32:54;;;;;;;7.95;1.73;;;10.60;99.90;;;;;;4954737;29;20032;-72
2022/07/14 00:35:21;;;;;;;8.23;1.50;;;10.60;99.90;;;;;;4937369;29;20026;-73
2022/07/14 00:37:49;;;;;;;6.35;1.40;;;10.70;99.90;;;;;;4954618;29;20027;-71
2022/07/14 00:40:16;;;;;;;8.07;1.90;;;10.80;99.90;;;;;;4954576;29;20077;-72
2022/07/14 00:42:49;;;;;;;15.48;2.17;;;11.00;99.90;;;;;;4954573;29;20050;-73
2022/07/14 00:45:22;;;;;;;11.60;1.95;;;11.10;99.90;;;;;;4954686;29;20023;-72
2022/07/14 00:47:49;;;;;;;10.05;2.10;;;11.30;99.90;;;;;;4954603;29;20047;-73
2022/07/14 00:50:19;;;;;;;12.65;2.22;;;11.50;99.90;;;;;;4954694;29;20355;-71
2022/07/14 00:52:48;;;;;;;14.45;2.92;;;11.70;99.90;;;;;;4954619;29;20387;-71
2022/07/14 00:55:17;;;;;;;15.13;2.35;;;12.00;99.90;;;;;;4954536;29;20019;-72
2022/07/14 00:57:46;;;;;;;13.32;2.58;;;12.30;99.90;;;;;;4954566;29;20020;-73
2022/07/14 01:00:15;;;;;;;9.27;2.08;;;12.40;99.90;;;;;;4954536;29;20019;-72
2022/07/14 01:02:44;;;;;;;10.43;2.13;;;12.40;99.90;;;;;;4954442;29;20078;-72
2022/07/14 01:05:12;;;;;;;8.38;1.52;;;12.30;99.90;;;;;;4936954;29;20087;-71
2022/07/14 01:07:40;;;;;;;6.88;1.30;;;12.20;99.90;;;;;;4954481;29;20039;-72
2022/07/14 01:10:09;;;;;;;9.38;2.03;;;12.30;99.90;;;;;;4937180;29;20118;-72
2022/07/14 01:12:38;;;;;;;9.70;1.83;;;12.30;99.90;;;;;;4954234;29;20024;-73
2022/07/14 01:15:06;;;;;;;8.57;1.85;;;12.30;99.90;;;;;;4954467;29;20379;-72
2022/07/14 01:17:33;;;;;;;10.60;2.05;;;12.30;99.90;;;;;;4954337;29;20019;-71
2022/07/14 01:20:00;;;;;;;9.80;1.77;;;12.40;99.90;;;;;;4954416;29;20492;-72
2022/07/14 01:22:28;;;;;;;9.30;1.25;;;12.40;99.90;;;;;;4937020;29;20078;-72
2022/07/14 01:24:55;;;;;;;6.57;1.30;;;12.60;99.90;;;;;;4937048;29;20027;-72
2022/07/14 01:27:22;;;;;;;9.38;1.60;;;12.60;99.90;;;;;;4954245;29;20085;-72
2022/07/14 01:29:50;;;;;;;6.38;0.95;;;12.90;99.90;;;;;;4954317;29;20030;-71
2022/07/14 01:32:18;;;;;;;8.15;1.10;;;13.00;99.90;;;;;;4954217;29;20476;-72
2022/07/14 01:34:45;;;;;;;7.18;1.52;;;13.10;99.90;;;;;;4955311;28;20098;-72
2022/07/14 01:37:12;;;;;;;8.85;1.38;;;13.30;99.90;;;;;;4957964;29;20024;-72
2022/07/14 01:39:39;;;;;;;5.53;1.10;;;13.80;99.90;;;;;;4958007;29;20102;-72
2022/07/14 01:42:08;;;;;;;7.63;1.10;;;13.80;99.90;;;;;;4940595;29;20035;-72
2022/07/14 01:44:35;;;;;;;6.07;1.25;;;13.90;99.90;;;;;;4940499;29;20081;-70
2022/07/14 01:47:02;;;;;;;6.85;1.50;;;13.70;99.90;;;;;;4957890;29;20058;-71
2022/07/14 01:49:30;;;;;;;7.15;1.50;;;13.70;99.90;;;;;;4957746;29;20175;-71
2022/07/14 01:51:57;;;;;;;8.10;1.25;;;13.80;99.90;;;;;;4957514;29;20042;-72
2022/07/14 01:54:25;;;;;;;8.57;2.38;;;13.70;99.90;;;;;;4940339;29;20110;-71
2022/07/14 01:56:52;;;;;;;4.93;1.13;;;13.70;99.90;;;;;;4957673;29;20162;-71
2022/07/14 01:59:19;;;;;;;7.95;1.50;;;13.60;99.90;;;;;;4957512;29;20024;-72
2022/07/14 02:01:47;;;;;;;4.55;1.23;;;13.60;99.90;;;;;;4940167;29;20081;-71
2022/07/14 02:04:16;;;;;;;4.18;1.02;;;13.70;99.90;;;;;;4957424;29;20023;-71
2022/07/14 02:06:46;;;;;;;9.05;1.80;;;13.70;99.90;;;;;;4957257;29;20080;-71
2022/07/14 02:09:14;;;;;;;7.97;1.73;;;13.80;99.90;;;;;;4957389;29;20032;-72
2022/07/14 02:14:28;;;;;;;4.30;1.10;;;13.70;99.90;;;;;;4957238;29;20035;-71
2022/07/14 02:16:55;;;;;;;5.70;1.30;;;13.80;99.90;;;;;;4957296;29;20030;-72
2022/07/14 02:19:26;;;;;;;8.32;1.60;;;13.80;99.90;;;;;;4957144;29;20031;-72
2022/07/14 02:21:55;;;;;;;5.00;1.02;;;13.70;99.90;;;;;;4957491;29;20043;-71
2022/07/14 02:24:23;;;;;;;5.38;1.10;;;13.70;99.90;;;;;;4939701;29;20145;-72
2022/07/14 02:26:51;;;;;;;7.25;1.33;;;14.00;99.90;;;;;;4957053;29;20047;-72
2022/07/14 02:29:20;;;;;;;7.68;1.48;;;13.80;99.90;;;;;;4956945;29;20106;-72
2022/07/14 02:31:48;;;;;;;6.63;1.08;;;13.60;99.90;;;;;;4956995;29;20019;-72
2022/07/14 02:34:16;;;;;;;6.82;1.35;;;13.80;99.90;;;;;;4956954;29;20383;-72
2022/07/14 02:36:45;;;;;;;5.15;1.33;;;14.10;99.90;;;;;;4939708;29;20055;-73
2022/07/14 02:39:13;;;;;;;4.72;1.08;;;14.40;99.90;;;;;;4939535;29;20027;-72
2022/07/14 02:41:40;;;;;;;6.78;1.38;;;14.40;99.90;;;;;;4939628;29;20027;-71
2022/07/14 02:44:08;;;;;;;9.90;2.20;;;14.10;99.90;;;;;;4939569;29;20160;-72
2022/07/14 02:46:36;;;;;;;5.13;1.30;;;14.10;99.90;;;;;;4939543;29;20031;-72
2022/07/14 02:49:04;;;;;;;5.40;1.00;;;13.90;99.90;;;;;;4956723;29;20027;-73
2022/07/14 02:51:32;;;;;;;6.53;1.63;;;13.90;99.90;;;;;;4956623;29;20114;-72
2022/07/14 02:53:59;;;;;;;4.15;1.10;;;13.80;99.90;;;;;;4956724;29;20025;-72
2022/07/14 02:56:27;;;;;;;6.90;1.13;;;13.60;99.90;;;;;;4956678;29;20073;-72
2022/07/14 02:58:54;;;;;;;5.00;1.10;;;13.50;99.90;;;;;;4956674;29;20023;-72
2022/07/14 03:01:22;;;;;;;4.25;1.20;;;13.40;99.90;;;;;;4939142;29;20078;-72
2022/07/14 03:03:49;;;;;;;9.07;1.60;;;13.50;99.90;;;;;;4956519;29;20023;-73
2022/07/14 03:06:18;;;;;;;7.20;1.55;;;13.60;99.90;;;;;;4956247;29;20075;-73
2022/07/14 03:08:46;;;;;;;9.38;1.60;;;13.80;99.90;;;;;;4939164;29;20030;-73
2022/07/14 03:11:14;;;;;;;7.07;1.52;;;14.00;99.90;;;;;;4938886;29;20027;-73
2022/07/14 03:13:41;;;;;;;3.88;1.63;;;14.10;99.90;;;;;;4956358;29;20015;-72
2022/07/14 03:16:10;;;;;;;5.72;1.20;;;14.10;99.90;;;;;;4956241;29;20024;-72
2022/07/14 03:18:39;;;;;;;6.82;1.05;;;14.00;99.90;;;;;;4938962;29;20025;-72
2022/07/14 03:21:11;;;;;;;5.20;0.85;;;13.90;99.90;;;;;;4938803;29;20122;-73
2022/07/14 03:23:40;;;;;;;6.10;1.40;;;13.80;99.90;;;;;;4956495;29;20027;-72
2022/07/14 03:26:07;;;;;;;5.65;0.90;;;14.00;99.90;;;;;;4956036;29;20046;-73
2022/07/14 03:28:35;;;;;;;7.65;1.52;;;14.00;99.90;;;;;;4956046;29;20045;-70
2022/07/14 03:31:02;;;;;;;5.22;1.08;;;14.10;99.90;;;;;;4938575;29;20503;-73
2022/07/14 03:33:30;;;;;;;8.63;1.67;;;14.10;99.90;;;;;;4938687;29;20502;-72
2022/07/14 03:35:57;;;;;;;6.53;1.40;;;13.90;99.90;;;;;;4955906;29;20051;-72
2022/07/14 03:38:25;;;;;;;5.85;1.33;;;14.00;99.90;;;;;;4955897;29;20054;-72
2022/07/14 03:40:52;;;;;;;5.55;1.13;;;13.80;99.90;;;;;;4955791;29;20394;-73
2022/07/14 03:43:19;;;;;;;5.55;1.00;;;13.70;99.90;;;;;;4938495;29;20027;-72
2022/07/14 03:45:47;;;;;;;6.47;1.20;;;13.60;99.90;;;;;;4938835;29;20023;-73
2022/07/14 03:48:14;;;;;;;6.78;1.10;;;13.50;99.90;;;;;;4955689;29;20027;-73
2022/07/14 03:50:42;;;;;;;5.00;1.00;;;13.40;99.90;;;;;;4955776;29;20034;-72
2022/07/14 03:53:09;;;;;;;9.57;1.90;;;13.30;99.90;;;;;;4938190;29;20495;-72
2022/07/14 03:55:37;;;;;;;8.82;2.55;;;13.20;99.90;;;;;;4938231;29;20396;-72
2022/07/14 03:58:04;;;;;;;7.57;1.40;;;13.20;99.90;;;;;;4937735;29;20046;-72
2022/07/14 04:00:32;;;;;;;7.25;1.30;;;13.20;99.90;;;;;;4955605;29;20399;-73
2022/07/14 04:02:59;;;;;;;6.85;1.25;;;13.20;99.90;;;;;;4938135;29;20086;-72
2022/07/14 04:05:26;;;;;;;8.00;1.80;;;13.20;99.90;;;;;;4937771;29;20508;-73
2022/07/14 04:07:54;;;;;;;6.13;1.45;;;13.20;99.90;;;;;;4955629;29;20026;-72
2022/07/14 04:10:22;;;;;;;6.80;1.40;;;13.20;99.90;;;;;;4938130;29;20437;-73
2022/07/14 04:12:50;;;;;;;6.32;1.52;;;13.20;99.90;;;;;;4955161;29;20031;-72
2022/07/14 04:15:17;;;;;;;5.97;1.85;;;13.30;99.90;;;;;;4955267;29;20071;-72
2022/07/14 04:17:45;;;;;;;6.38;1.52;;;13.30;99.90;;;;;;4955417;29;20023;-72
2022/07/14 04:20:12;;;;;;;6.78;1.30;;;13.40;99.90;;;;;;4955231;29;20024;-72
2022/07/14 04:22:40;;;;;;;7.05;1.63;;;13.40;99.90;;;;;;4955620;29;20023;-72
2022/07/14 04:25:12;;;;;;;6.95;0.82;;;13.60;99.90;;;;;;4955211;29;20129;-72
2022/07/14 04:27:40;;;;;;;5.80;1.10;;;13.50;99.90;;;;;;4955129;29;20106;-72
2022/07/14 04:30:09;;;;;;;7.63;1.35;;;13.50;99.90;;;;;;4937890;29;20023;-72
2022/07/14 04:32:37;;;;;;;8.43;1.33;;;13.50;99.90;;;;;;4937559;29;20123;-72
2022/07/14 04:35:06;;;;;;;7.65;1.48;;;13.50;99.90;;;;;;4955566;29;20037;-72
2022/07/14 04:37:34;;;;;;;7.28;1.63;;;13.50;99.90;;;;;;4954945;29;20383;-72
2022/07/14 04:40:02;;;;;;;7.82;1.77;;;13.50;99.90;;;;;;4955052;29;20019;-72
2022/07/14 04:42:29;;;;;;;5.90;1.40;;;13.60;99.90;;;;;;4954810;29;20023;-72
2022/07/14 04:44:56;;;;;;;8.63;1.45;;;13.60;99.90;;;;;;4937663;29;20023;-71
2022/07/14 04:47:24;;;;;;;5.72;1.33;;;13.70;99.90;;;;;;4954706;29;20035;-72
2022/07/14 04:52:44;;;;;;;8.05;1.80;;;13.80;99.90;;;;;;4954803;29;20506;-72
2022/07/14 04:55:11;;;;;;;5.70;1.08;;;13.80;99.90;;;;;;4937535;29;20030;-71
2022/07/14 04:57:39;;;;;;;6.20;1.10;;;13.80;99.90;;;;;;4937380;29;20392;-72
2022/07/14 05:00:07;;;;;;;11.88;1.75;;;13.90;99.90;;;;;;4937405;29;20020;-71
2022/07/14 05:02:34;;;;;;;5.40;1.20;;;13.90;99.90;;;;;;4954684;29;20051;-72
2022/07/14 05:05:02;;;;;;;4.82;0.82;;;13.90;99.90;;;;;;4954421;29;20059;-72
2022/07/14 05:07:30;;;;;;;4.13;1.13;;;14.00;99.90;;;;;;4954091;29;20392;-71
2022/07/14 05:09:57;;;;;;;5.78;1.45;;;14.10;99.90;;;;;;4955023;28;20496;-72
2022/07/14 05:12:25;;;;;;;8.13;1.73;;;14.00;99.90;;;;;;4957203;29;20031;-72
2022/07/14 05:14:53;;;;;;;8.07;1.33;;;14.00;99.90;;;;;;4957159;29;20035;-72
2022/07/14 05:17:20;;;;;;;6.53;1.02;;;13.90;99.90;;;;;;4939850;29;20404;-70
2022/07/14 05:19:47;;;;;;;5.63;1.08;;;13.90;99.90;;;;;;4939625;29;20021;-70
2022/07/14 05:22:15;;;;;;;5.93;1.13;;;13.90;99.90;;;;;;4957431;29;20031;-70
2022/07/14 05:24:42;;;;;;;4.68;0.90;;;13.90;99.90;;;;;;4939524;29;20139;-70
2022/07/14 05:27:10;;;;;;;7.05;1.10;;;13.90;99.90;;;;;;4956894;29;20027;-71
2022/07/14 05:29:37;;;;;;;6.20;1.25;;;13.90;99.90;;;;;;4939499;29;20476;-70
2022/07/14 05:32:05;;;;;;;3.35;0.88;;;13.80;99.90;;;;;;4939597;29;20066;-71
2022/07/14 05:34:32;;;;;;;4.40;1.17;;;13.70;99.90;;;;;;4956803;29;20019;-71
2022/07/14 05:37:01;;;;;;;11.25;1.98;;;13.50;99.90;;;;;;4956806;29;20027;-70
2022/07/14 05:39:29;;;;;;;4.57;1.17;;;13.50;99.90;;;;;;4956760;29;20022;-70
2022/07/14 05:41:56;;;;;;;4.10;0.80;;;13.50;99.90;;;;;;4956823;29;20392;-70
2022/07/14 05:44:24;;;;;;;6.78;1.20;;;13.60;99.90;;;;;;4957029;29;20027;-71
2022/07/14 05:46:51;;;;;;;4.63;0.80;;;13.60;99.90;;;;;;4957015;29;20030;-70
2022/07/14 05:49:18;;;;;;;6.47;1.25;;;13.60;99.90;;;;;;4939196;29;20031;-70
2022/07/14 05:51:45;;;;;;;3.83;1.10;;;13.50;99.90;;;;;;4956525;29;20024;-71
2022/07/14 05:54:13;;;;;;;3.92;1.40;;;13.50;99.90;;;;;;4939246;29;20038;-70
2022/07/14 05:56:40;;;;;;;6.85;1.20;;;13.50;99.90;;;;;;4939153;29;20488;-70
2022/07/14 05:59:08;;;;;;;5.18;1.08;;;13.60;99.90;;;;;;4939213;29;20031;-70
2022/07/14 06:01:35;;;;;;;4.53;1.20;;;13.60;99.90;;;;;;4956415;29;20078;-70
2022/07/14 06:04:02;;;;;;;6.22;1.10;;;13.50;99.90;;;;;;4956434;29;20039;-70
2022/07/14 06:06:30;;;;;;;3.88;1.25;;;13.50;99.90;;;;;;4859847;28;2835242;-70
2022/07/14 06:08:58;;;;;;;4.38;1.25;;;13.40;99.90;;;;;;4957729;29;20027;-70
2022/07/14 06:11:25;;;;;;;4.30;1.30;;;13.30;99.90;;;;;;4939930;29;20034;-70
2022/07/14 06:13:52;;;;;;;5.15;1.20;;;13.30;99.90;;;;;;4957393;29;20396;-71
2022/07/14 06:16:20;;;;;;;5.28;1.15;;;13.40;99.90;;;;;;4939995;29;20032;-71
2022/07/14 06:18:47;;;;;;;4.47;1.08;;;13.30;99.90;;;;;;4957348;29;20043;-71
2022/07/14 06:21:14;;;;;;;7.93;1.40;;;13.20;99.90;;;;;;4939575;29;20050;-72
2022/07/14 06:23:42;;;;;;;5.50;1.10;;;13.10;99.90;;;;;;4957245;29;20023;-74
2022/07/14 06:26:12;;;;;;;3.83;1.08;;;13.10;99.90;;;;;;4957123;29;20015;-73
2022/07/14 06:28:39;;;;;;;;;;;13.00;99.90;;;;;;4957863;29;20023;-73
2022/07/14 06:31:06;;;;;;;6.18;1.38;;;13.00;99.90;;;;;;4956876;29;19906;-72
2022/07/14 06:33:34;;;;;;;2.85;0.90;;;13.00;99.90;;;;;;4957523;29;20023;-71
2022/07/14 06:36:01;;;;;;;3.15;0.90;;;12.90;99.90;;;;;;4939530;29;20027;-72
2022/07/14 06:38:29;;;;;;;6.53;1.20;;;12.90;99.90;;;;;;4956966;29;20023;-72
2022/07/14 06:40:56;;;;;;;4.10;1.10;;;12.80;99.90;;;;;;4939582;29;20019;-72
2022/07/14 06:43:23;;;;;;;6.35;1.40;;;12.80;99.90;;;;;;4956832;29;20507;-73
2022/07/14 06:45:51;;;;;;;3.20;1.10;;;12.70;99.90;;;;;;4939453;29;20391;-72
2022/07/14 06:48:19;;;;;;;6.22;1.60;;;12.60;99.90;;;;;;4956757;29;20034;-73
2022/07/14 06:50:47;;;;;;;5.03;1.60;;;12.60;99.90;;;;;;4956630;29;20030;-73
2022/07/14 06:53:14;;;;;;;5.22;1.50;;;12.40;99.90;;;;;;4956673;29;20023;-72
2022/07/14 06:55:41;;;;;;;5.68;1.63;;;12.40;99.90;;;;;;4939365;29;20054;-72
2022/07/14 06:58:09;;;;;;;4.70;1.58;;;12.20;99.90;;;;;;4938995;29;20019;-73
2022/07/14 07:00:36;;;;;;;7.85;1.80;;;12.20;99.90;;;;;;4956312;29;20039;-73
2022/07/14 07:03:11;;;;;;;6.38;1.30;;;12.20;99.90;;;;;;4956323;29;20023;-72
2022/07/14 07:08:25;;;;;;;6.43;1.83;;;12.20;99.90;;;;;;4956826;29;20066;-72
2022/07/14 07:10:55;;;;;;;4.10;1.35;;;12.20;99.90;;;;;;4938550;29;20031;-73
2022/07/14 07:13:23;;;;;;;5.87;1.10;;;12.20;99.90;;;;;;4938439;29;20031;-72
2022/07/14 07:15:50;;;;;;;3.75;1.40;;;12.20;99.90;;;;;;4955838;29;20035;-72
2022/07/14 07:18:17;;;;;;;6.97;2.00;;;12.10;99.90;;;;;;4955816;29;20027;-72
2022/07/14 07:20:45;;;;;;;6.82;2.20;;;12.00;99.90;;;;;;4955772;29;20500;-72
2022/07/14 07:23:12;;;;;;;5.72;1.70;;;12.00;99.90;;;;;;4956460;29;20035;-73
2022/07/14 07:25:39;;;;;;;4.55;1.15;;;11.90;99.90;;;;;;4955982;29;20506;-72
2022/07/14 07:28:06;;;;;;;4.88;1.52;;;11.90;99.90;;;;;;4956033;29;20031;-73
2022/07/14 07:30:34;;;;;;;5.13;1.70;;;11.80;99.90;;;;;;4938501;29;20042;-73
2022/07/14 07:33:01;;;;;;;4.72;1.50;;;11.70;99.90;;;;;;4954992;28;20028;-72
2022/07/14 07:35:28;;;;;;;4.72;1.45;;;11.70;99.90;;;;;;4938531;29;20027;-73
2022/07/14 07:37:56;;;;;;;8.00;1.52;;;11.70;99.90;;;;;;4938704;29;20034;-73
2022/07/14 07:40:23;;;;;;;2.85;1.08;;;11.60;99.90;;;;;;4955652;29;20037;-72
2022/07/14 07:42:50;;;;;;;3.03;1.30;;;11.60;99.90;;;;;;4955662;29;20546;-72
2022/07/14 07:45:18;;;;;;;3.00;1.25;;;11.50;99.90;;;;;;4955561;29;20050;-72
2022/07/14 07:47:45;;;;;;;3.33;0.95;;;11.60;99.90;;;;;;4955676;29;20032;-72
2022/07/14 07:50:12;;;;;;;3.17;1.15;;;11.50;99.90;;;;;;4938190;29;20035;-73
2022/07/14 07:52:40;;;;;;;3.90;1.40;;;11.40;99.90;;;;;;4955442;29;20114;-73
2022/07/14 07:55:11;;;;;;;3.40;1.40;;;11.40;99.90;;;;;;4955678;29;20027;-73
2022/07/14 07:57:39;;;;;;;4.22;1.35;;;11.30;99.90;;;;;;4955630;29;20019;-73
2022/07/14 08:00:07;;;;;;;3.97;1.40;;;11.30;99.90;;;;;;4955877;29;20058;-72
2022/07/14 08:02:34;;;;;;;4.65;1.30;;;11.40;99.90;;;;;;4937905;29;20578;-72
2022/07/14 08:05:02;;;;;;;3.03;1.00;;;11.30;99.90;;;;;;4937554;29;20035;-72
2022/07/14 08:07:29;;;;;;;6.30;1.50;;;11.30;99.90;;;;;;4938021;29;20086;-72
2022/07/14 08:09:56;;;;;;;5.57;1.63;;;11.30;99.90;;;;;;4937850;29;20031;-73
2022/07/14 08:12:24;;;;;;;2.95;1.20;;;11.30;99.90;;;;;;4937742;29;20023;-72
2022/07/14 08:14:52;;;;;;;3.90;1.30;;;11.30;99.90;;;;;;4955064;29;20468;-73
2022/07/14 08:17:22;;;;;;;4.20;1.40;;;11.20;99.90;;;;;;4937730;29;20041;-72
2022/07/14 08:19:50;;;;;;;3.88;1.52;;;11.20;99.90;;;;;;4937628;29;20051;-73
2022/07/14 08:22:25;;;;;;;5.50;2.05;;;11.20;99.90;;;;;;4954828;29;20039;-72
2022/07/14 08:24:53;;;;;;;5.68;1.63;;;11.30;99.90;;;;;;4937687;29;20037;-73
2022/07/14 08:27:20;;;;;;;5.07;1.40;;;11.40;99.90;;;;;;4954825;29;20068;-73
2022/07/14 08:29:48;;;;;;;4.20;1.52;;;11.30;99.90;;;;;;4937537;29;20028;-73
2022/07/14 08:32:16;;;;;;;3.15;1.30;;;11.20;99.90;;;;;;4937463;29;20124;-73
2022/07/14 08:34:43;;;;;;;2.88;1.45;;;11.00;99.90;;;;;;4954842;29;20028;-73
2022/07/14 08:37:11;;;;;;;3.85;1.60;;;10.90;99.90;;;;;;4937527;29;20110;-74
2022/07/14 08:39:38;;;;;;;3.47;1.65;;;11.00;99.90;;;;;;4937444;29;20480;-73
2022/07/14 08:42:05;;;;;;;4.13;1.60;;;10.90;99.90;;;;;;4954784;29;20031;-72
2022/07/14 08:44:33;;;;;;;5.00;2.17;;;10.80;99.90;;;;;;4954377;29;20094;-73
2022/07/14 08:47:02;;;;;;;5.18;1.88;;;10.70;99.90;;;;;;4954973;29;20138;-73
2022/07/14 08:49:30;;;;;;;2.78;1.70;;;10.60;99.90;;;;;;4954609;29;20027;-73
2022/07/14 08:51:57;;;;;;;7.65;2.25;;;10.60;99.90;;;;;;4954516;29;20480;-73
2022/07/14 08:54:25;;;;;;;6.47;1.92;;;10.60;99.90;;;;;;4954514;29;20038;-74
2022/07/14 08:56:53;;;;;;;5.55;1.70;;;10.50;99.90;;;;;;4954507;29;20368;-72
2022/07/14 08:59:20;;;;;;;5.65;1.80;;;10.40;99.90;;;;;;4954564;29;20019;-74
2022/07/14 09:01:50;;;;;;;8.73;1.80;;;10.40;99.90;;;;;;4954548;29;20059;-74
2022/07/14 09:04:17;;;;;;;4.63;2.13;;;10.50;99.90;;;;;;4937138;29;20050;-74
2022/07/14 09:06:55;;;;;;;4.50;1.67;;;10.50;99.90;;;;;;4954296;29;20051;-74
2022/07/14 09:09:25;;;;;;;5.07;1.88;;;10.40;99.90;;;;;;4937141;29;20043;-73
2022/07/14 09:12:07;;;;;;;4.85;1.90;;;10.40;99.90;;;;;;4936982;29;20122;-73
2022/07/14 09:17:29;;;;;;;5.07;1.58;;;10.40;99.90;;;;;;4954466;29;20034;-72
2022/07/14 09:20:07;;;;;;;5.80;1.90;;;10.30;99.90;;;;;;4954339;29;20388;-72
2022/07/14 09:22:43;;;;;;;6.65;2.60;;;10.30;99.90;;;;;;4936986;29;20118;-72
2022/07/14 09:25:16;;;;;;;5.57;2.15;;;10.30;99.90;;;;;;4937030;29;20440;-72
2022/07/14 09:27:47;;;;;;;6.13;2.40;;;10.30;99.90;;;;;;4954248;29;20024;-74
2022/07/14 09:30:15;;;;;;;;;;;10.30;99.90;;;;;;4954708;29;20031;-73
2022/07/14 09:32:42;;;;;;;6.65;2.88;;;10.20;99.90;;;;;;4954227;29;19920;-72
2022/07/14 09:35:11;;;;;;;4.70;1.63;;;10.20;99.90;;;;;;4936822;29;20103;-72
2022/07/14 09:37:40;;;;;;;6.05;1.67;;;10.10;99.90;;;;;;4936985;29;20480;-72
2022/07/14 09:40:15;;;;;;;5.18;1.90;;;10.00;99.90;;;;;;4936762;29;20025;-72
2022/07/14 09:42:53;;;;;;;6.07;2.15;;;9.90;99.90;;;;;;4936965;29;20035;-73
2022/07/14 09:45:25;;;;;;;7.22;2.50;;;9.80;99.90;;;;;;4954151;29;20055;-73
2022/07/14 09:47:58;;;;;;;7.43;2.50;;;9.70;99.90;;;;;;4936846;29;20031;-73
2022/07/14 09:50:57;;;;;;;5.53;2.70;;;9.70;99.90;;;;;;4953988;29;20102;-74
2022/07/14 09:53:30;;;;;;;6.63;2.63;;;9.60;99.90;;;;;;4954269;29;20114;-74
2022/07/14 09:56:08;;;;;;;6.25;3.13;;;9.60;99.90;;;;;;4955279;28;20477;-74
2022/07/14 09:58:51;;;;;;;7.50;3.03;;;9.50;99.90;;;;;;4957618;29;20047;-73
2022/07/14 10:01:19;;;;;;;7.45;3.55;;;9.40;99.90;;;;;;4940212;29;20521;-73
2022/07/14 10:03:49;;;;;;;9.43;3.38;;;9.50;99.90;;;;;;4957523;29;20070;-73
2022/07/14 10:06:18;;;;;;;6.43;3.15;;;9.40;99.90;;;;;;4957254;29;20480;-73
2022/07/14 10:08:50;;;;;;;6.88;3.22;;;9.40;99.90;;;;;;4957414;29;20047;-72
2022/07/14 10:11:18;;;;;;;10.75;3.67;;;9.40;99.90;;;;;;4957489;29;20105;-73
2022/07/14 10:13:45;;;;;;;10.85;3.72;;;9.40;99.90;;;;;;4957585;29;20020;-73
2022/07/14 10:16:14;;;;;;;8.48;3.42;;;9.40;99.90;;;;;;4957248;29;20028;-73
2022/07/14 10:18:43;;;;;;;8.13;3.67;;;9.50;99.90;;;;;;4957248;29;20023;-72
2022/07/14 10:21:10;;;;;;;13.25;4.60;;;9.40;99.90;;;;;;4957402;29;20387;-72
2022/07/14 10:23:39;;;;;;;7.35;3.17;;;9.50;99.90;;;;;;4939848;29;20031;-72
2022/07/14 10:26:08;;;;;;;6.07;3.25;;;9.60;99.90;;;;;;4957151;29;20449;-73
2022/07/14 10:28:39;;;;;;;6.47;3.10;;;9.60;99.90;;;;;;4939714;29;20031;-72
2022/07/14 10:31:12;;;;;;;;;;;9.60;99.90;;;;;;4940093;29;20554;-72
2022/07/14 10:33:55;;;;;;;6.13;2.35;;;9.70;99.90;;;;;;4957198;29;19997;-72
2022/07/14 10:36:34;;;;;;;9.25;2.00;;;9.60;99.90;;;;;;4939593;29;20074;-72
2022/07/14 10:39:28;;;;;;;6.45;2.25;;;9.70;99.90;;;;;;4957352;29;20460;-72
2022/07/14 10:42:00;;;;;;;8.32;4.28;;;9.70;99.90;;;;;;4957013;29;20428;-72
2022/07/14 10:44:34;;;;;;;9.77;4.47;;;9.70;99.90;;;;;;4956874;29;20023;-72
2022/07/14 10:47:11;;;;;;;6.50;2.40;;;9.70;99.90;;;;;;4939480;29;20034;-73
2022/07/14 10:50:02;;;;;;;6.75;2.10;;;9.70;99.90;;;;;;4957029;29;20114;-73
2022/07/14 10:52:32;;;;;;;4.63;1.65;;;9.80;99.90;;;;;;4956622;29;20051;-72
2022/07/14 10:55:18;;;;;;;6.22;1.83;;;9.70;99.90;;;;;;4939437;29;20055;-72
2022/07/14 10:58:01;;;;;;;3.88;1.67;;;9.70;99.90;;;;;;4939343;29;20067;-73
2022/07/14 11:03:22;;;;;;;7.10;1.95;;;9.70;99.90;;;;;;4956650;29;20039;-72
2022/07/14 11:06:18;;;;;;;9.02;1.70;;;9.70;99.90;;;;;;4939024;29;20043;-72
2022/07/14 11:09:07;;;;;;;3.53;1.50;;;9.60;99.90;;;;;;4937316;29;20376;-72
2022/07/14 11:11:34;;;;;;;5.03;1.85;;;9.60;99.90;;;;;;4941745;29;20035;-72
2022/07/14 11:14:01;;;;;;;8.15;1.63;;;9.60;99.90;;;;;;4938929;29;20020;-72
2022/07/14 11:16:47;;;;;;;3.97;1.40;;;9.60;99.90;;;;;;4938905;29;20103;-72
2022/07/14 11:19:41;;;;;;;4.70;1.75;;;9.50;99.90;;;;;;4938798;29;20055;-72
2022/07/14 11:22:23;;;;;;;3.53;1.50;;;9.60;99.90;;;;;;4953744;29;20511;-74
2022/07/14 11:24:57;;;;;;;4.53;1.40;;;9.60;99.90;;;;;;4938907;29;20369;-73
2022/07/14 11:27:33;;;;;;;4.20;1.58;;;9.50;99.90;;;;;;4956032;29;20051;-73
2022/07/14 11:30:22;;;;;;;4.10;1.52;;;9.50;99.90;;;;;;4956326;29;20027;-73
2022/07/14 11:33:11;;;;;;;5.63;1.63;;;9.40;99.90;;;;;;4938677;29;20404;-73
2022/07/14 11:38:40;;;;;;;4.07;1.75;;;9.40;99.90;;;;;;4956197;29;20034;-73
2022/07/14 11:41:15;;;;;;;5.32;2.08;;;9.40;99.90;;;;;;4956015;29;20047;-73
2022/07/14 11:43:45;;;;;;;3.00;1.65;;;9.40;99.90;;;;;;4955897;29;20082;-73
2022/07/14 11:46:20;;;;;;;4.88;2.10;;;9.40;99.90;;;;;;4938504;29;20027;-72
2022/07/14 11:48:53;;;;;;;3.90;1.90;;;9.30;99.90;;;;;;4956281;29;20074;-72
2022/07/14 11:51:31;;;;;;;5.70;2.03;;;9.30;99.90;;;;;;4938922;29;20468;-72
2022/07/14 11:54:04;;;;;;;4.50;2.30;;;9.30;99.90;;;;;;4955679;29;20506;-73
2022/07/14 11:56:33;;;;;;;6.30;2.60;;;9.20;99.90;;;;;;4955636;29;20047;-74
2022/07/14 11:59:07;;;;;;;6.72;2.40;;;9.20;99.90;;;;;;4955866;29;20468;-72
2022/07/14 12:01:36;;;;;;;8.23;3.00;;;9.10;99.90;;;;;;4955563;29;20095;-72
2022/07/14 12:04:09;;;;;;;9.82;4.78;;;9.10;99.90;;;;;;4955491;29;20035;-72
2022/07/14 12:06:43;;;;;;;7.07;3.15;;;9.00;99.90;;;;;;4955337;29;20045;-73
2022/07/14 12:09:11;;;;;;;5.63;2.95;;;9.00;99.90;;;;;;4938101;29;20035;-73
2022/07/14 12:11:51;;;;;;;5.90;2.88;;;9.00;99.90;;;;;;4937928;29;20046;-72
2022/07/14 12:14:18;;;;;;;6.82;2.63;;;9.00;99.90;;;;;;4955854;29;20473;-72
2022/07/14 12:16:47;;;;;;;6.40;2.60;;;9.00;99.90;;;;;;4938023;29;20118;-71
2022/07/14 12:19:14;;;;;;;5.68;2.45;;;9.00;99.90;;;;;;4955083;28;20029;-72
2022/07/14 12:21:42;;;;;;;5.18;2.50;;;8.90;99.90;;;;;;4955324;29;20019;-72
2022/07/14 12:24:12;;;;;;;6.35;2.40;;;8.80;99.90;;;;;;4955135;29;20031;-72
2022/07/14 12:26:39;;;;;;;7.55;2.67;;;8.80;99.90;;;;;;4937756;29;20038;-72
2022/07/14 12:29:08;;;;;;;7.90;2.67;;;8.80;99.90;;;;;;4937669;29;20404;-73
2022/07/14 12:31:40;;;;;;;5.47;2.50;;;8.80;99.90;;;;;;4954909;29;20027;-74
2022/07/14 12:34:08;;;;;;;6.55;2.83;;;8.80;99.90;;;;;;4937617;29;20023;-73
2022/07/14 12:36:36;;;;;;;5.88;3.03;;;8.70;99.90;;;;;;4954967;29;20105;-74
2022/07/14 12:39:05;;;;;;;5.18;2.45;;;8.70;99.90;;;;;;4955364;29;20077;-74
2022/07/14 12:41:33;;;;;;;5.65;2.45;;;8.70;99.90;;;;;;4937569;29;20027;-74
2022/07/14 12:44:05;;;;;;;3.33;2.53;;;8.70;99.90;;;;;;4954817;29;20019;-74
2022/07/14 12:46:33;;;;;;;6.65;2.50;;;8.70;99.90;;;;;;4955078;29;20030;-74
2022/07/14 12:49:04;;;;;;;5.40;2.60;;;8.70;99.90;;;;;;4954795;29;20483;-74
2022/07/14 12:51:43;;;;;;;6.55;2.47;;;8.60;99.90;;;;;;4955051;29;20023;-74
2022/07/14 12:54:16;;;;;;;7.35;2.70;;;8.60;99.90;;;;;;4937436;29;20097;-74
2022/07/14 12:56:54;;;;;;;6.22;2.45;;;8.60;99.90;;;;;;4937505;29;20023;-73
2022/07/14 12:59:36;;;;;;;5.80;2.47;;;8.60;99.90;;;;;;4937400;29;20485;-74
2022/07/14 13:02:09;;;;;;;5.65;2.38;;;8.60;99.90;;;;;;4937433;29;20031;-74
2022/07/14 13:04:45;;;;;;;5.05;2.15;;;8.50;99.90;;;;;;4937230;29;20123;-74
2022/07/14 13:07:15;;;;;;;5.40;2.38;;;8.50;99.90;;;;;;4954511;29;20051;-74
2022/07/14 13:10:07;;;;;;;4.97;2.25;;;8.50;99.90;;;;;;4954709;29;20027;-74
2022/07/14 13:12:35;;;;;;;5.72;2.38;;;8.50;99.90;;;;;;4954538;29;20055;-74
2022/07/14 13:15:07;;;;;;;6.50;2.35;;;8.50;99.90;;;;;;4937226;29;20027;-73
2022/07/14 13:17:53;;;;;;;6.05;2.90;;;8.50;99.90;;;;;;4937239;29;20024;-74
2022/07/14 13:20:48;;;;;;;5.30;2.45;;;8.40;99.90;;;;;;4937063;29;20106;-74